sensor_id;sensor_type;location;lat;lon;timestamp;pressure;altitude;pressure_sealevel;temperature
7830;BMP180;3960;51.86894000;5.39848000;2023-04-02T00:01:49;101195.41;;;7.29
7830;BMP180;3960;51.86894000;5.39848000;2023-04-02T00:04:19;101198.44;;;7.24
7830;BMP180;3960;51.86894000;5.39848000;2023-04-02T00:06:47;101205.78;;;7.31
7830;BMP180;3960;51.86894000;5.39848000;2023-04-02T00:11:41;101205.00;;;7.27
7830;BMP180;3960;51.86894000;5.39848000;2023-04-02T00:14:32;101204.25;;;7.26
7830;BMP180;3960;51.86894000;5.39848000;2023-04-02T00:17:01;101206.91;;;7.23
7830;BMP180;3960;51.86894000;5.39848000;2023-04-02T00:21:56;101213.78;;;7.21
7830;BMP180;3960;51.86894000;5.39848000;2023-04-02T00:24:22;101206.41;;;7.11
7830;BMP180;3960;51.86894000;5.39848000;2023-04-02T00:26:50;101223.41;;;7.22
7830;BMP180;3960;51.86894000;5.39848000;2023-04-02T00:29:16;101218.75;;;7.15
7830;BMP180;3960;51.86894000;5.39848000;2023-04-02T00:31:48;101211.03;;;7.10
7830;BMP180;3960;51.86894000;5.39848000;2023-04-02T00:34:21;101232.97;;;7.16
7830;BMP180;3960;51.86894000;5.39848000;2023-04-02T00:36:48;101238.41;;;7.19
7830;BMP180;3960;51.86894000;5.39848000;2023-04-02T00:39:25;101258.41;;;7.18
7830;BMP180;3960;51.86894000;5.39848000;2023-04-02T00:41:53;101259.91;;;7.16
7830;BMP180;3960;51.86894000;5.39848000;2023-04-02T00:44:28;101269.09;;;7.11
7830;BMP180;3960;51.86894000;5.39848000;2023-04-02T00:46:57;101272.19;;;7.10
7830;BMP180;3960;51.86894000;5.39848000;2023-04-02T00:49:35;101262.47;;;7.02
7830;BMP180;3960;51.86894000;5.39848000;2023-04-02T00:52:06;101269.78;;;7.01
7830;BMP180;3960;51.86894000;5.39848000;2023-04-02T00:54:38;101272.03;;;6.96
7830;BMP180;3960;51.86894000;5.39848000;2023-04-02T00:57:12;101279.38;;;6.99
7830;BMP180;3960;51.86894000;5.39848000;2023-04-02T00:59:56;101263.41;;;6.80
7830;BMP180;3960;51.86894000;5.39848000;2023-04-02T01:02:30;101276.13;;;6.83
7830;BMP180;3960;51.86894000;5.39848000;2023-04-02T01:05:00;101293.91;;;6.91
7830;BMP180;3960;51.86894000;5.39848000;2023-04-02T01:11:01;101312.34;;;6.89
7830;BMP180;3960;51.86894000;5.39848000;2023-04-02T01:19:32;101298.69;;;6.71
7830;BMP180;3960;51.86894000;5.39848000;2023-04-02T01:22:02;101322.59;;;6.76
7830;BMP180;3960;51.86894000;5.39848000;2023-04-02T01:24:32;101328.75;;;6.77
7830;BMP180;3960;51.86894000;5.39848000;2023-04-02T01:27:00;101332.22;;;6.77
7830;BMP180;3960;51.86894000;5.39848000;2023-04-02T01:31:57;101322.03;;;6.64
7830;BMP180;3960;51.86894000;5.39848000;2023-04-02T01:34:24;101345.63;;;6.74
7830;BMP180;3960;51.86894000;5.39848000;2023-04-02T01:37:11;101342.56;;;6.75
7830;BMP180;3960;51.86894000;5.39848000;2023-04-02T01:45:08;101344.72;;;6.63
7830;BMP180;3960;51.86894000;5.39848000;2023-04-02T01:47:36;101348.19;;;6.63
7830;BMP180;3960;51.86894000;5.39848000;2023-04-02T01:50:23;101366.72;;;6.68
7830;BMP180;3960;51.86894000;5.39848000;2023-04-02T01:52:52;101353.00;;;6.51
7830;BMP180;3960;51.86894000;5.39848000;2023-04-02T01:55:29;101385.88;;;6.63
7830;BMP180;3960;51.86894000;5.39848000;2023-04-02T01:57:55;101388.03;;;6.54
7830;BMP180;3960;51.86894000;5.39848000;2023-04-02T02:00:22;101382.28;;;6.56
7830;BMP180;3960;51.86894000;5.39848000;2023-04-02T02:02:49;101395.44;;;6.61
7830;BMP180;3960;51.86894000;5.39848000;2023-04-02T02:05:17;101398.47;;;6.59
7830;BMP180;3960;51.86894000;5.39848000;2023-04-02T02:07:45;101404.25;;;6.58
7830;BMP180;3960;51.86894000;5.39848000;2023-04-02T02:10:16;101398.81;;;6.54
7830;BMP180;3960;51.86894000;5.39848000;2023-04-02T02:12:43;101407.66;;;6.55
7830;BMP180;3960;51.86894000;5.39848000;2023-04-02T02:15:20;101416.88;;;6.54
7830;BMP180;3960;51.86894000;5.39848000;2023-04-02T02:17:47;101406.34;;;6.46
7830;BMP180;3960;51.86894000;5.39848000;2023-04-02T02:20:13;101413.34;;;6.50
7830;BMP180;3960;51.86894000;5.39848000;2023-04-02T02:22:43;101432.53;;;6.49
7830;BMP180;3960;51.86894000;5.39848000;2023-04-02T02:25:33;101416.25;;;6.38
7830;BMP180;3960;51.86894000;5.39848000;2023-04-02T02:28:02;101436.69;;;6.43
7830;BMP180;3960;51.86894000;5.39848000;2023-04-02T02:30:37;101421.47;;;6.28
7830;BMP180;3960;51.86894000;5.39848000;2023-04-02T02:33:22;101447.75;;;6.38
7830;BMP180;3960;51.86894000;5.39848000;2023-04-02T02:35:56;101441.41;;;6.27
7830;BMP180;3960;51.86894000;5.39848000;2023-04-02T02:38:30;101458.88;;;6.36
7830;BMP180;3960;51.86894000;5.39848000;2023-04-02T02:41:05;101458.03;;;6.32
7830;BMP180;3960;51.86894000;5.39848000;2023-04-02T02:43:32;101458.28;;;6.24
7830;BMP180;3960;51.86894000;5.39848000;2023-04-02T02:45:58;101466.00;;;6.25
7830;BMP180;3960;51.86894000;5.39848000;2023-04-02T02:48:33;101478.00;;;6.31
7830;BMP180;3960;51.86894000;5.39848000;2023-04-02T02:51:08;101472.88;;;6.23
7830;BMP180;3960;51.86894000;5.39848000;2023-04-02T02:53:44;101481.06;;;6.30
7830;BMP180;3960;51.86894000;5.39848000;2023-04-02T02:56:11;101500.31;;;6.32
7830;BMP180;3960;51.86894000;5.39848000;2023-04-02T02:58:36;101490.69;;;6.31
7830;BMP180;3960;51.86894000;5.39848000;2023-04-02T03:01:02;101500.25;;;6.28
7830;BMP180;3960;51.86894000;5.39848000;2023-04-02T03:03:30;101500.25;;;6.28
7830;BMP180;3960;51.86894000;5.39848000;2023-04-02T03:06:09;101500.91;;;6.22
7830;BMP180;3960;51.86894000;5.39848000;2023-04-02T03:08:44;101510.84;;;6.18
7830;BMP180;3960;51.86894000;5.39848000;2023-04-02T03:11:14;101506.53;;;6.13
7830;BMP180;3960;51.86894000;5.39848000;2023-04-02T03:13:45;101498.69;;;6.05
7830;BMP180;3960;51.86894000;5.39848000;2023-04-02T03:16:20;101523.50;;;6.17
7830;BMP180;3960;51.86894000;5.39848000;2023-04-02T03:21:23;101541.47;;;6.13
7830;BMP180;3960;51.86894000;5.39848000;2023-04-02T03:23:55;101540.22;;;6.07
7830;BMP180;3960;51.86894000;5.39848000;2023-04-02T03:29:05;101562.81;;;6.03
7830;BMP180;3960;51.86894000;5.39848000;2023-04-02T03:31:38;101558.72;;;5.90
7830;BMP180;3960;51.86894000;5.39848000;2023-04-02T03:34:24;101582.31;;;6.00
7830;BMP180;3960;51.86894000;5.39848000;2023-04-02T03:37:09;101586.16;;;5.99
7830;BMP180;3960;51.86894000;5.39848000;2023-04-02T03:39:46;101562.38;;;5.82
7830;BMP180;3960;51.86894000;5.39848000;2023-04-02T03:42:21;101599.19;;;5.97
7830;BMP180;3960;51.86894000;5.39848000;2023-04-02T03:44:56;101601.88;;;5.97
7830;BMP180;3960;51.86894000;5.39848000;2023-04-02T03:48:00;101608.00;;;5.97
7830;BMP180;3960;51.86894000;5.39848000;2023-04-02T03:50:30;101608.00;;;5.97
7830;BMP180;3960;51.86894000;5.39848000;2023-04-02T03:52:58;101617.94;;;5.93
7830;BMP180;3960;51.86894000;5.39848000;2023-04-02T03:55:26;101602.78;;;5.85
7830;BMP180;3960;51.86894000;5.39848000;2023-04-02T03:58:00;101596.94;;;5.80
7830;BMP180;3960;51.86894000;5.39848000;2023-04-02T04:02:59;101620.97;;;5.92
7830;BMP180;3960;51.86894000;5.39848000;2023-04-02T04:05:34;101633.28;;;5.93
7830;BMP180;3960;51.86894000;5.39848000;2023-04-02T04:08:04;101641.34;;;5.93
7830;BMP180;3960;51.86894000;5.39848000;2023-04-02T04:10:30;101618.38;;;5.77
7830;BMP180;3960;51.86894000;5.39848000;2023-04-02T04:13:11;101638.44;;;5.82
7830;BMP180;3960;51.86894000;5.39848000;2023-04-02T04:15:51;101648.56;;;5.89
7830;BMP180;3960;51.86894000;5.39848000;2023-04-02T04:21:04;101659.97;;;5.82
7830;BMP180;3960;51.86894000;5.39848000;2023-04-02T04:23:33;101679.91;;;5.81
7830;BMP180;3960;51.86894000;5.39848000;2023-04-02T04:26:07;101664.28;;;5.72
7830;BMP180;3960;51.86894000;5.39848000;2023-04-02T04:28:58;101686.31;;;5.77
7830;BMP180;3960;51.86894000;5.39848000;2023-04-02T04:31:37;101663.63;;;5.59
7830;BMP180;3960;51.86894000;5.39848000;2023-04-02T04:34:13;101691.16;;;5.72
7830;BMP180;3960;51.86894000;5.39848000;2023-04-02T04:36:50;101698.81;;;5.70
7830;BMP180;3960;51.86894000;5.39848000;2023-04-02T04:39:30;101704.59;;;5.72
7830;BMP180;3960;51.86894000;5.39848000;2023-04-02T04:42:00;101707.63;;;5.70
7830;BMP180;3960;51.86894000;5.39848000;2023-04-02T04:45:07;101716.13;;;5.72
7830;BMP180;3960;51.86894000;5.39848000;2023-04-02T04:47:40;101712.94;;;5.67
7830;BMP180;3960;51.86894000;5.39848000;2023-04-02T04:53:07;101730.63;;;5.68
7830;BMP180;3960;51.86894000;5.39848000;2023-04-02T04:55:40;101723.88;;;5.58
7830;BMP180;3960;51.86894000;5.39848000;2023-04-02T05:01:14;101739.13;;;5.54
7830;BMP180;3960;51.86894000;5.39848000;2023-04-02T05:06:36;101744.34;;;5.47
7830;BMP180;3960;51.86894000;5.39848000;2023-04-02T05:09:29;101759.41;;;5.36
7830;BMP180;3960;51.86894000;5.39848000;2023-04-02T05:14:41;101767.56;;;5.24
7830;BMP180;3960;51.86894000;5.39848000;2023-04-02T05:17:20;101774.31;;;5.18
7830;BMP180;3960;51.86894000;5.39848000;2023-04-02T05:22:55;101803.09;;;5.18
7830;BMP180;3960;51.86894000;5.39848000;2023-04-02T05:25:24;101786.16;;;5.02
7830;BMP180;3960;51.86894000;5.39848000;2023-04-02T05:28:04;101807.47;;;5.10
7830;BMP180;3960;51.86894000;5.39848000;2023-04-02T05:33:18;101805.81;;;5.06
7830;BMP180;3960;51.86894000;5.39848000;2023-04-02T05:35:47;101822.28;;;5.04
7830;BMP180;3960;51.86894000;5.39848000;2023-04-02T05:38:27;101830.69;;;5.03
7830;BMP180;3960;51.86894000;5.39848000;2023-04-02T05:43:25;101838.44;;;4.93
7830;BMP180;3960;51.86894000;5.39848000;2023-04-02T05:45:56;101843.38;;;4.91
7830;BMP180;3960;51.86894000;5.39848000;2023-04-02T05:48:30;101853.69;;;4.89
7830;BMP180;3960;51.86894000;5.39848000;2023-04-02T05:50:57;101849.53;;;4.91
7830;BMP180;3960;51.86894000;5.39848000;2023-04-02T05:53:27;101848.31;;;4.89
7830;BMP180;3960;51.86894000;5.39848000;2023-04-02T05:59:10;101872.75;;;4.99
7830;BMP180;3960;51.86894000;5.39848000;2023-04-02T06:01:45;101882.81;;;5.02
7830;BMP180;3960;51.86894000;5.39848000;2023-04-02T06:04:43;101884.28;;;5.00
7830;BMP180;3960;51.86894000;5.39848000;2023-04-02T06:09:50;101882.66;;;4.83
7830;BMP180;3960;51.86894000;5.39848000;2023-04-02T06:14:46;101906.56;;;5.15
7830;BMP180;3960;51.86894000;5.39848000;2023-04-02T06:17:16;101919.78;;;5.20
7830;BMP180;3960;51.86894000;5.39848000;2023-04-02T06:19:42;101921.94;;;5.15
7830;BMP180;3960;51.86894000;5.39848000;2023-04-02T06:22:37;101930.53;;;5.20
7830;BMP180;3960;51.86894000;5.39848000;2023-04-02T06:25:32;101940.22;;;5.25
7830;BMP180;3960;51.86894000;5.39848000;2023-04-02T06:28:00;101947.63;;;5.28
7830;BMP180;3960;51.86894000;5.39848000;2023-04-02T06:30:32;101941.94;;;5.17
7830;BMP180;3960;51.86894000;5.39848000;2023-04-02T06:32:59;101945.22;;;5.11
7830;BMP180;3960;51.86894000;5.39848000;2023-04-02T06:35:25;101947.22;;;5.14
7830;BMP180;3960;51.86894000;5.39848000;2023-04-02T06:37:52;101955.81;;;5.19
7830;BMP180;3960;51.86894000;5.39848000;2023-04-02T06:42:57;101959.41;;;5.11
7830;BMP180;3960;51.86894000;5.39848000;2023-04-02T06:45:27;101964.22;;;5.06
7830;BMP180;3960;51.86894000;5.39848000;2023-04-02T06:47:56;101981.34;;;5.13
7830;BMP180;3960;51.86894000;5.39848000;2023-04-02T06:50:26;101994.44;;;5.15
7830;BMP180;3960;51.86894000;5.39848000;2023-04-02T06:52:57;101990.78;;;5.07
7830;BMP180;3960;51.86894000;5.39848000;2023-04-02T06:55:29;101998.66;;;5.28
7830;BMP180;3960;51.86894000;5.39848000;2023-04-02T06:57:56;102007.47;;;5.28
7830;BMP180;3960;51.86894000;5.39848000;2023-04-02T07:00:29;102023.94;;;5.27
7830;BMP180;3960;51.86894000;5.39848000;2023-04-02T07:02:59;102030.91;;;5.16
7830;BMP180;3960;51.86894000;5.39848000;2023-04-02T07:05:26;102027.56;;;5.07
7830;BMP180;3960;51.86894000;5.39848000;2023-04-02T07:07:51;102032.06;;;5.03
7830;BMP180;3960;51.86894000;5.39848000;2023-04-02T07:10:17;102041.56;;;5.01
7830;BMP180;3960;51.86894000;5.39848000;2023-04-02T07:12:44;102055.09;;;5.04
7830;BMP180;3960;51.86894000;5.39848000;2023-04-02T07:15:14;102053.53;;;5.03
7830;BMP180;3960;51.86894000;5.39848000;2023-04-02T07:17:40;102046.50;;;4.87
7830;BMP180;3960;51.86894000;5.39848000;2023-04-02T07:20:08;102064.06;;;4.84
7830;BMP180;3960;51.86894000;5.39848000;2023-04-02T07:22:44;102068.53;;;4.92
7830;BMP180;3960;51.86894000;5.39848000;2023-04-02T07:25:09;102082.50;;;4.86
7830;BMP180;3960;51.86894000;5.39848000;2023-04-02T07:27:34;102078.16;;;4.81
7830;BMP180;3960;51.86894000;5.39848000;2023-04-02T07:30:00;102094.13;;;4.90
7830;BMP180;3960;51.86894000;5.39848000;2023-04-02T07:32:25;102093.38;;;4.89
7830;BMP180;3960;51.86894000;5.39848000;2023-04-02T07:34:50;102106.44;;;4.91
7830;BMP180;3960;51.86894000;5.39848000;2023-04-02T07:37:16;102120.75;;;4.83
7830;BMP180;3960;51.86894000;5.39848000;2023-04-02T07:39:41;102127.22;;;4.70
7830;BMP180;3960;51.86894000;5.39848000;2023-04-02T07:42:06;102117.28;;;4.58
7830;BMP180;3960;51.86894000;5.39848000;2023-04-02T07:44:32;102132.25;;;4.59
7830;BMP180;3960;51.86894000;5.39848000;2023-04-02T07:46:57;102117.47;;;4.53
7830;BMP180;3960;51.86894000;5.39848000;2023-04-02T07:49:22;102124.34;;;4.63
7830;BMP180;3960;51.86894000;5.39848000;2023-04-02T07:51:48;102122.41;;;4.63
7830;BMP180;3960;51.86894000;5.39848000;2023-04-02T07:54:13;102137.19;;;4.69
7830;BMP180;3960;51.86894000;5.39848000;2023-04-02T07:56:38;102122.75;;;4.62
7830;BMP180;3960;51.86894000;5.39848000;2023-04-02T07:59:04;102146.00;;;4.70
7830;BMP180;3960;51.86894000;5.39848000;2023-04-02T08:01:29;102117.94;;;4.55
7830;BMP180;3960;51.86894000;5.39848000;2023-04-02T08:04:00;102146.47;;;4.72
7830;BMP180;3960;51.86894000;5.39848000;2023-04-02T08:06:25;102143.91;;;4.75
7830;BMP180;3960;51.86894000;5.39848000;2023-04-02T08:08:51;102134.28;;;4.74
7830;BMP180;3960;51.86894000;5.39848000;2023-04-02T08:11:17;102150.09;;;4.88
7830;BMP180;3960;51.86894000;5.39848000;2023-04-02T08:13:42;102153.53;;;5.00
7830;BMP180;3960;51.86894000;5.39848000;2023-04-02T08:16:08;102156.44;;;5.07
7830;BMP180;3960;51.86894000;5.39848000;2023-04-02T08:18:34;102142.59;;;5.05
7830;BMP180;3960;51.86894000;5.39848000;2023-04-02T08:20:59;102161.28;;;5.25
7830;BMP180;3960;51.86894000;5.39848000;2023-04-02T08:23:25;102166.75;;;5.41
7830;BMP180;3960;51.86894000;5.39848000;2023-04-02T08:25:52;102171.13;;;5.45
7830;BMP180;3960;51.86894000;5.39848000;2023-04-02T08:28:19;102173.25;;;5.40
7830;BMP180;3960;51.86894000;5.39848000;2023-04-02T08:30:45;102161.84;;;5.31
7830;BMP180;3960;51.86894000;5.39848000;2023-04-02T08:33:12;102204.13;;;5.46
7830;BMP180;3960;51.86894000;5.39848000;2023-04-02T08:35:38;102209.19;;;5.47
7830;BMP180;3960;51.86894000;5.39848000;2023-04-02T08:38:03;102203.25;;;5.42
7830;BMP180;3960;51.86894000;5.39848000;2023-04-02T08:40:37;102214.00;;;5.42
7830;BMP180;3960;51.86894000;5.39848000;2023-04-02T08:45:58;102222.41;;;5.40
7830;BMP180;3960;51.86894000;5.39848000;2023-04-02T08:48:26;102222.06;;;5.42
7830;BMP180;3960;51.86894000;5.39848000;2023-04-02T08:50:52;102226.31;;;5.43
7830;BMP180;3960;51.86894000;5.39848000;2023-04-02T08:53:24;102237.59;;;5.48
7830;BMP180;3960;51.86894000;5.39848000;2023-04-02T08:56:03;102234.81;;;5.57
7830;BMP180;3960;51.86894000;5.39848000;2023-04-02T09:01:06;102253.50;;;5.65
7830;BMP180;3960;51.86894000;5.39848000;2023-04-02T09:03:41;102248.78;;;5.62
7830;BMP180;3960;51.86894000;5.39848000;2023-04-02T09:06:12;102262.59;;;5.61
7830;BMP180;3960;51.86894000;5.39848000;2023-04-02T09:08:42;102256.53;;;5.52
7830;BMP180;3960;51.86894000;5.39848000;2023-04-02T09:13:49;102266.84;;;5.74
7830;BMP180;3960;51.86894000;5.39848000;2023-04-02T09:16:17;102268.75;;;5.73
7830;BMP180;3960;51.86894000;5.39848000;2023-04-02T09:18:48;102265.94;;;5.70
7830;BMP180;3960;51.86894000;5.39848000;2023-04-02T09:21:35;102289.81;;;5.83
7830;BMP180;3960;51.86894000;5.39848000;2023-04-02T09:24:01;102287.38;;;5.78
7830;BMP180;3960;51.86894000;5.39848000;2023-04-02T09:26:30;102280.06;;;5.67
7830;BMP180;3960;51.86894000;5.39848000;2023-04-02T09:29:25;102306.69;;;5.72
7830;BMP180;3960;51.86894000;5.39848000;2023-04-02T09:32:06;102307.31;;;5.77
7830;BMP180;3960;51.86894000;5.39848000;2023-04-02T09:34:35;102293.59;;;5.70
7830;BMP180;3960;51.86894000;5.39848000;2023-04-02T09:37:12;102318.28;;;5.84
7830;BMP180;3960;51.86894000;5.39848000;2023-04-02T09:39:38;102321.63;;;5.81
7830;BMP180;3960;51.86894000;5.39848000;2023-04-02T09:44:49;102332.28;;;5.78
7830;BMP180;3960;51.86894000;5.39848000;2023-04-02T09:47:25;102337.34;;;5.79
7830;BMP180;3960;51.86894000;5.39848000;2023-04-02T09:49:51;102338.97;;;5.72
7830;BMP180;3960;51.86894000;5.39848000;2023-04-02T09:52:27;102344.34;;;5.72
7830;BMP180;3960;51.86894000;5.39848000;2023-04-02T09:55:26;102359.25;;;5.69
7830;BMP180;3960;51.86894000;5.39848000;2023-04-02T09:58:09;102354.94;;;5.77
7830;BMP180;3960;51.86894000;5.39848000;2023-04-02T10:00:35;102351.16;;;5.69
7830;BMP180;3960;51.86894000;5.39848000;2023-04-02T10:03:25;102367.75;;;5.71
7830;BMP180;3960;51.86894000;5.39848000;2023-04-02T10:06:11;102375.03;;;5.71
7830;BMP180;3960;51.86894000;5.39848000;2023-04-02T10:08:39;102374.81;;;5.76
7830;BMP180;3960;51.86894000;5.39848000;2023-04-02T10:11:12;102376.97;;;5.82
7830;BMP180;3960;51.86894000;5.39848000;2023-04-02T10:13:53;102381.69;;;5.85
7830;BMP180;3960;51.86894000;5.39848000;2023-04-02T10:16:30;102381.13;;;5.91
7830;BMP180;3960;51.86894000;5.39848000;2023-04-02T10:19:30;102393.25;;;6.09
7830;BMP180;3960;51.86894000;5.39848000;2023-04-02T10:21:58;102377.31;;;6.16
7830;BMP180;3960;51.86894000;5.39848000;2023-04-02T10:24:27;102392.31;;;6.29
7830;BMP180;3960;51.86894000;5.39848000;2023-04-02T10:26:59;102391.09;;;6.39
7830;BMP180;3960;51.86894000;5.39848000;2023-04-02T10:32:54;102398.38;;;6.38
7830;BMP180;3960;51.86894000;5.39848000;2023-04-02T10:40:45;102396.78;;;6.61
7830;BMP180;3960;51.86894000;5.39848000;2023-04-02T10:46:12;102395.19;;;6.72
7830;BMP180;3960;51.86894000;5.39848000;2023-04-02T10:49:08;102423.34;;;7.02
7830;BMP180;3960;51.86894000;5.39848000;2023-04-02T10:51:52;102405.97;;;6.99
7830;BMP180;3960;51.86894000;5.39848000;2023-04-02T10:59:44;102417.94;;;8.49
7830;BMP180;3960;51.86894000;5.39848000;2023-04-02T11:02:33;102427.25;;;9.42
7830;BMP180;3960;51.86894000;5.39848000;2023-04-02T11:05:09;102415.28;;;9.65
7830;BMP180;3960;51.86894000;5.39848000;2023-04-02T11:07:46;102430.69;;;9.84
7830;BMP180;3960;51.86894000;5.39848000;2023-04-02T11:10:16;102417.09;;;9.80
7830;BMP180;3960;51.86894000;5.39848000;2023-04-02T11:12:55;102427.69;;;10.11
7830;BMP180;3960;51.86894000;5.39848000;2023-04-02T11:15:22;102421.47;;;10.33
7830;BMP180;3960;51.86894000;5.39848000;2023-04-02T11:17:48;102441.47;;;10.51
7830;BMP180;3960;51.86894000;5.39848000;2023-04-02T11:20:47;102440.06;;;10.60
7830;BMP180;3960;51.86894000;5.39848000;2023-04-02T11:23:20;102421.09;;;10.60
7830;BMP180;3960;51.86894000;5.39848000;2023-04-02T11:25:46;102424.38;;;10.73
7830;BMP180;3960;51.86894000;5.39848000;2023-04-02T11:28:22;102453.13;;;11.10
7830;BMP180;3960;51.86894000;5.39848000;2023-04-02T11:30:50;102419.34;;;11.04
7830;BMP180;3960;51.86894000;5.39848000;2023-04-02T11:35:54;102436.13;;;11.49
7830;BMP180;3960;51.86894000;5.39848000;2023-04-02T11:45:57;102477.41;;;12.01
7830;BMP180;3960;51.86894000;5.39848000;2023-04-02T11:48:34;102472.75;;;12.02
7830;BMP180;3960;51.86894000;5.39848000;2023-04-02T11:53:47;102461.09;;;12.48
7830;BMP180;3960;51.86894000;5.39848000;2023-04-02T11:56:52;102471.88;;;11.91
7830;BMP180;3960;51.86894000;5.39848000;2023-04-02T11:59:38;102470.47;;;12.07
7830;BMP180;3960;51.86894000;5.39848000;2023-04-02T12:02:18;102474.13;;;12.25
7830;BMP180;3960;51.86894000;5.39848000;2023-04-02T12:07:36;102482.19;;;12.68
7830;BMP180;3960;51.86894000;5.39848000;2023-04-02T12:10:27;102484.72;;;12.94
7830;BMP180;3960;51.86894000;5.39848000;2023-04-02T12:12:56;102487.75;;;12.86
7830;BMP180;3960;51.86894000;5.39848000;2023-04-02T12:15:43;102484.31;;;12.92
7830;BMP180;3960;51.86894000;5.39848000;2023-04-02T12:18:19;102485.53;;;13.02
7830;BMP180;3960;51.86894000;5.39848000;2023-04-02T12:20:48;102498.44;;;13.18
7830;BMP180;3960;51.86894000;5.39848000;2023-04-02T12:23:17;102493.09;;;13.43
7830;BMP180;3960;51.86894000;5.39848000;2023-04-02T12:25:52;102500.91;;;13.48
7830;BMP180;3960;51.86894000;5.39848000;2023-04-02T12:28:18;102496.59;;;13.43
7830;BMP180;3960;51.86894000;5.39848000;2023-04-02T12:30:48;102487.34;;;13.69
7830;BMP180;3960;51.86894000;5.39848000;2023-04-02T12:35:39;102492.38;;;13.60
7830;BMP180;3960;51.86894000;5.39848000;2023-04-02T12:38:21;102503.69;;;13.69
7830;BMP180;3960;51.86894000;5.39848000;2023-04-02T12:40:50;102501.38;;;13.84
7830;BMP180;3960;51.86894000;5.39848000;2023-04-02T12:43:23;102487.38;;;14.00
7830;BMP180;3960;51.86894000;5.39848000;2023-04-02T12:45:58;102494.78;;;14.03
7830;BMP180;3960;51.86894000;5.39848000;2023-04-02T12:48:24;102498.69;;;14.05
7830;BMP180;3960;51.86894000;5.39848000;2023-04-02T12:50:51;102490.50;;;13.95
7830;BMP180;3960;51.86894000;5.39848000;2023-04-02T12:53:25;102496.31;;;13.86
7830;BMP180;3960;51.86894000;5.39848000;2023-04-02T12:55:53;102493.63;;;13.97
7830;BMP180;3960;51.86894000;5.39848000;2023-04-02T12:58:32;102508.81;;;13.98
7830;BMP180;3960;51.86894000;5.39848000;2023-04-02T13:01:21;102498.22;;;13.58
7830;BMP180;3960;51.86894000;5.39848000;2023-04-02T13:04:09;102502.84;;;13.58
7830;BMP180;3960;51.86894000;5.39848000;2023-04-02T13:06:39;102501.72;;;13.62
7830;BMP180;3960;51.86894000;5.39848000;2023-04-02T13:09:25;102502.09;;;13.61
7830;BMP180;3960;51.86894000;5.39848000;2023-04-02T13:11:51;102495.44;;;13.44
7830;BMP180;3960;51.86894000;5.39848000;2023-04-02T13:14:19;102501.72;;;13.66
7830;BMP180;3960;51.86894000;5.39848000;2023-04-02T13:16:45;102502.16;;;13.95
7830;BMP180;3960;51.86894000;5.39848000;2023-04-02T13:19:31;102492.81;;;13.93
7830;BMP180;3960;51.86894000;5.39848000;2023-04-02T13:21:59;102495.97;;;14.09
7830;BMP180;3960;51.86894000;5.39848000;2023-04-02T13:24:28;102499.13;;;14.18
7830;BMP180;3960;51.86894000;5.39848000;2023-04-02T13:26:56;102503.38;;;14.26
7830;BMP180;3960;51.86894000;5.39848000;2023-04-02T13:31:53;102490.56;;;14.26
7830;BMP180;3960;51.86894000;5.39848000;2023-04-02T13:34:18;102488.59;;;14.37
7830;BMP180;3960;51.86894000;5.39848000;2023-04-02T13:36:45;102497.56;;;14.34
7830;BMP180;3960;51.86894000;5.39848000;2023-04-02T13:39:10;102501.47;;;14.37
7830;BMP180;3960;51.86894000;5.39848000;2023-04-02T13:41:44;102501.06;;;14.28
7830;BMP180;3960;51.86894000;5.39848000;2023-04-02T13:44:17;102510.75;;;14.08
7830;BMP180;3960;51.86894000;5.39848000;2023-04-02T13:46:43;102499.84;;;13.97
7830;BMP180;3960;51.86894000;5.39848000;2023-04-02T13:49:09;102515.47;;;14.14
7830;BMP180;3960;51.86894000;5.39848000;2023-04-02T13:51:41;102512.75;;;14.11
7830;BMP180;3960;51.86894000;5.39848000;2023-04-02T13:54:17;102516.63;;;14.10
7830;BMP180;3960;51.86894000;5.39848000;2023-04-02T13:56:43;102494.81;;;14.06
7830;BMP180;3960;51.86894000;5.39848000;2023-04-02T13:59:09;102519.31;;;13.96
7830;BMP180;3960;51.86894000;5.39848000;2023-04-02T14:01:35;102516.16;;;13.87
7830;BMP180;3960;51.86894000;5.39848000;2023-04-02T14:04:01;102510.66;;;13.63
7830;BMP180;3960;51.86894000;5.39848000;2023-04-02T14:06:49;102527.75;;;13.53
7830;BMP180;3960;51.86894000;5.39848000;2023-04-02T14:14:53;102537.19;;;13.02
7830;BMP180;3960;51.86894000;5.39848000;2023-04-02T14:17:26;102536.38;;;12.91
7830;BMP180;3960;51.86894000;5.39848000;2023-04-02T14:23:22;102542.97;;;12.90
7830;BMP180;3960;51.86894000;5.39848000;2023-04-02T14:28:48;102539.97;;;13.09
7830;BMP180;3960;51.86894000;5.39848000;2023-04-02T14:31:35;102528.69;;;13.03
7830;BMP180;3960;51.86894000;5.39848000;2023-04-02T14:37:17;102544.22;;;13.03
7830;BMP180;3960;51.86894000;5.39848000;2023-04-02T14:42:39;102553.06;;;12.89
7830;BMP180;3960;51.86894000;5.39848000;2023-04-02T14:45:30;102555.69;;;12.79
7830;BMP180;3960;51.86894000;5.39848000;2023-04-02T14:48:04;102556.66;;;12.53
7830;BMP180;3960;51.86894000;5.39848000;2023-04-02T14:50:39;102556.59;;;12.46
7830;BMP180;3960;51.86894000;5.39848000;2023-04-02T14:53:30;102563.63;;;12.51
7830;BMP180;3960;51.86894000;5.39848000;2023-04-02T14:55:59;102558.19;;;12.51
7830;BMP180;3960;51.86894000;5.39848000;2023-04-02T14:58:34;102542.59;;;12.41
7830;BMP180;3960;51.86894000;5.39848000;2023-04-02T15:01:09;102560.22;;;12.61
7830;BMP180;3960;51.86894000;5.39848000;2023-04-02T15:04:02;102566.50;;;12.72
7830;BMP180;3960;51.86894000;5.39848000;2023-04-02T15:06:37;102557.88;;;12.63
7830;BMP180;3960;51.86894000;5.39848000;2023-04-02T15:09:06;102562.09;;;12.53
7830;BMP180;3960;51.86894000;5.39848000;2023-04-02T15:11:40;102576.75;;;12.45
7830;BMP180;3960;51.86894000;5.39848000;2023-04-02T15:14:16;102576.44;;;12.50
7830;BMP180;3960;51.86894000;5.39848000;2023-04-02T15:16:43;102571.41;;;12.56